createdAt,value
2022-08-28T00:04:18.655Z,93464.75
2022-08-28T00:09:21.888Z,93464.47
2022-08-28T00:14:26.613Z,93470.75
2022-08-28T00:19:29.648Z,93473.81
2022-08-28T00:24:34.650Z,93474.44
2022-08-28T00:29:38.703Z,93485.66
2022-08-28T00:34:41.671Z,93468.34
2022-08-28T00:39:45.655Z,93474.69
2022-08-28T00:44:48.623Z,93474.16
2022-08-28T00:49:54.842Z,93465.50
2022-08-28T00:55:03.819Z,93461.75
2022-08-28T01:00:13.366Z,93471.13
2022-08-28T01:05:17.746Z,93475.41
2022-08-28T01:10:23.534Z,93483.91
2022-08-28T01:15:32.466Z,93480.25
2022-08-28T01:20:38.546Z,93476.19
2022-08-28T01:25:43.531Z,93469.47
2022-08-28T01:30:48.502Z,93482.19
2022-08-28T01:35:52.478Z,93476.81
2022-08-28T01:40:58.161Z,93468.84
2022-08-28T01:46:04.916Z,93475.34
2022-08-28T01:51:08.561Z,93473.84
2022-08-28T01:56:15.779Z,93466.28
2022-08-28T02:01:22.138Z,93467.38
2022-08-28T02:06:25.963Z,93464.94
2022-08-28T02:11:33.067Z,93454.41
2022-08-28T02:16:36.121Z,93448.19
2022-08-28T02:21:39.981Z,93446.28
2022-08-28T02:26:45.148Z,93448.50
2022-08-28T02:31:48.507Z,93446.06
2022-08-28T02:36:52.531Z,93449.59
2022-08-28T02:41:55.898Z,93464.59
2022-08-28T02:47:00.911Z,93458.81
2022-08-28T02:52:04.715Z,93456.31
2022-08-28T02:57:08.931Z,93446.84
2022-08-28T03:02:12.653Z,93441.03
2022-08-28T03:07:17.104Z,93453.66
2022-08-28T03:12:24.243Z,93459.16
2022-08-28T03:17:27.346Z,93455.41
2022-08-28T03:22:49.852Z,93463.47
2022-08-28T03:27:53.194Z,93469.72
2022-08-28T03:32:56.087Z,93466.00
2022-08-28T03:38:00.266Z,93478.47
2022-08-28T03:43:03.248Z,93478.13
2022-08-28T03:48:10.201Z,93480.19
2022-08-28T03:53:13.427Z,93488.53
2022-08-28T03:58:18.915Z,93494.41
2022-08-28T04:03:22.814Z,93499.59
2022-08-28T04:08:26.471Z,93492.59
2022-08-28T04:13:30.421Z,93488.97
2022-08-28T04:18:33.788Z,93493.16
2022-08-28T04:23:38.434Z,93504.31
2022-08-28T04:28:42.389Z,93514.69
2022-08-28T04:33:45.852Z,93512.28
2022-08-28T04:38:48.807Z,93501.50
2022-08-28T04:43:53.049Z,93489.47
2022-08-28T04:48:56.660Z,93509.97
2022-08-28T04:54:00.588Z,93520.09
2022-08-28T04:59:04.490Z,93519.22
2022-08-28T05:04:08.435Z,93534.09
2022-08-28T05:09:13.524Z,93538.91
2022-08-28T05:14:17.476Z,93539.41
2022-08-28T05:19:21.340Z,93540.16
2022-08-28T05:24:26.644Z,93555.03
2022-08-28T05:29:30.263Z,93545.66
2022-08-28T05:34:33.466Z,93547.75
2022-08-28T05:39:36.392Z,93552.88
2022-08-28T05:44:39.834Z,93540.81
2022-08-28T05:49:43.788Z,93534.31
2022-08-28T05:54:47.356Z,93547.09
2022-08-28T05:59:51.490Z,93550.75
2022-08-28T06:04:54.829Z,93542.22
2022-08-28T06:09:58.409Z,93540.06
2022-08-28T06:15:02.201Z,93545.16
2022-08-28T06:20:06.114Z,93549.41
2022-08-28T06:25:14.358Z,93553.50
2022-08-28T06:30:17.802Z,93551.72
2022-08-28T06:35:38.596Z,93548.28
2022-08-28T06:40:43.647Z,93558.47
2022-08-28T06:46:33.494Z,93563.34
2022-08-28T06:51:40.677Z,93553.06
2022-08-28T06:56:44.567Z,93557.97
2022-08-28T07:01:48.156Z,93565.09
2022-08-28T07:07:55.902Z,93558.09
2022-08-28T07:13:00.614Z,93558.25
2022-08-28T07:18:03.627Z,93548.28
2022-08-28T07:23:07.945Z,93542.66
2022-08-28T07:28:11.585Z,93555.91
2022-08-28T07:33:15.271Z,93561.72
2022-08-28T07:38:18.693Z,93564.28
2022-08-28T07:43:40.629Z,93564.44
2022-08-28T07:48:46.069Z,93579.03
2022-08-28T07:53:49.380Z,93571.19
2022-08-28T07:58:52.520Z,93581.53
2022-08-28T08:04:01.257Z,93582.56
2022-08-28T08:09:06.832Z,93582.16
2022-08-28T08:14:12.220Z,93575.66
2022-08-28T08:19:16.629Z,93592.66
2022-08-28T08:24:21.230Z,93584.16
2022-08-28T08:29:24.950Z,93594.47
2022-08-28T08:34:28.818Z,93585.16
2022-08-28T08:39:34.272Z,93590.22
2022-08-28T08:44:42.164Z,93600.97
2022-08-28T08:50:00.829Z,93600.97
2022-08-28T08:55:16.030Z,93610.22
2022-08-28T09:00:20.990Z,93599.59
2022-08-28T09:05:37.908Z,93595.16
2022-08-28T09:10:48.552Z,93608.75
2022-08-28T09:15:52.497Z,93607.97
2022-08-28T09:20:58.886Z,93612.38
2022-08-28T09:26:12.607Z,93601.84
2022-08-28T09:31:33.582Z,93604.75
2022-08-28T09:36:38.917Z,93607.19
2022-08-28T09:42:22.252Z,93624.06
2022-08-28T09:47:38.487Z,93620.31
2022-08-28T09:52:51.486Z,93623.69
2022-08-28T09:57:55.633Z,93624.47
2022-08-28T10:03:39.981Z,93634.13
2022-08-28T10:09:13.550Z,93622.56
2022-08-28T10:14:44.272Z,93614.06
2022-08-28T10:20:15.824Z,93609.78
2022-08-28T10:25:46.634Z,93609.72
2022-08-28T10:31:00.838Z,93617.84
2022-08-28T10:36:08.857Z,93627.88
2022-08-28T10:41:39.219Z,93638.84
2022-08-28T10:46:50.031Z,93638.59
2022-08-28T10:52:05.444Z,93633.09
2022-08-28T10:57:23.947Z,93621.16
2022-08-28T11:02:30.321Z,93626.88
2022-08-28T11:07:45.749Z,93609.88
2022-08-28T11:12:52.032Z,93613.03
2022-08-28T11:18:16.499Z,93601.00
2022-08-28T11:23:24.589Z,93619.06
2022-08-28T11:28:44.993Z,93613.97
2022-08-28T11:33:50.982Z,93607.22
2022-08-28T11:38:57.889Z,93595.19
2022-08-28T11:44:09.805Z,93589.66
2022-08-28T11:49:34.453Z,93600.69
2022-08-28T11:54:54.112Z,93610.84
2022-08-28T12:00:29.113Z,93624.09
2022-08-28T12:05:32.537Z,93634.50
2022-08-28T12:10:36.133Z,93635.13
2022-08-28T12:15:43.120Z,93642.78
2022-08-28T12:21:03.559Z,93621.56
2022-08-28T12:26:21.219Z,93614.34
2022-08-28T12:32:07.233Z,93629.91
2022-08-28T12:37:31.365Z,93643.47
2022-08-28T12:43:02.728Z,93633.63
2022-08-28T12:48:11.504Z,93621.81
2022-08-28T12:53:18.455Z,93644.31
2022-08-28T12:58:31.538Z,93643.22
2022-08-28T13:03:41.572Z,93628.84
2022-08-28T13:08:49.258Z,93599.28
2022-08-28T13:13:53.585Z,93595.50
2022-08-28T13:19:06.664Z,93597.00
2022-08-28T13:24:22.237Z,93595.78
2022-08-28T13:29:25.664Z,93583.09
2022-08-28T13:34:31.041Z,93578.13
2022-08-28T13:39:36.557Z,93573.91
2022-08-28T13:44:42.449Z,93577.53
2022-08-28T13:49:47.611Z,93601.09
2022-08-28T13:54:51.989Z,93633.38
2022-08-28T13:59:56.025Z,93619.91
2022-08-28T14:04:59.511Z,93611.13
2022-08-28T14:10:05.082Z,93630.94
2022-08-28T14:15:09.439Z,93623.13
2022-08-28T14:20:14.722Z,93643.59
2022-08-28T14:25:17.828Z,93635.50
2022-08-28T14:30:21.342Z,93612.22
2022-08-28T14:35:24.732Z,93616.69
2022-08-28T14:40:27.898Z,93608.50
2022-08-28T14:45:32.028Z,93618.34
2022-08-28T14:50:41.210Z,93600.78
2022-08-28T14:55:48.674Z,93581.22
2022-08-28T15:00:53.033Z,93553.44
2022-08-28T15:06:10.076Z,93576.72
2022-08-28T15:11:18.898Z,93591.38
2022-08-28T15:16:29.907Z,93583.78
2022-08-28T15:21:38.620Z,93590.06
2022-08-28T15:26:42.287Z,93565.47
2022-08-28T15:31:49.533Z,93552.78
2022-08-28T15:36:55.988Z,93548.22
2022-08-28T15:42:01.626Z,93552.09
2022-08-28T15:47:06.782Z,93530.59
2022-08-28T15:52:11.300Z,93529.03
2022-08-28T15:57:15.242Z,93533.75
2022-08-28T16:02:22.488Z,93524.69
2022-08-28T16:07:26.235Z,93523.91
2022-08-28T16:12:29.947Z,93527.47
2022-08-28T16:17:33.483Z,93515.81
2022-08-28T16:22:37.556Z,93526.09
2022-08-28T16:27:41.620Z,93506.09
2022-08-28T16:32:46.846Z,93502.72
2022-08-28T16:37:52.126Z,93498.16
2022-08-28T16:42:57.968Z,93522.53
2022-08-28T16:48:02.370Z,93535.22
2022-08-28T16:53:07.142Z,93547.91
2022-08-28T16:58:14.969Z,93548.97
2022-08-28T17:03:26.487Z,93567.44
2022-08-28T17:08:31.019Z,93575.41
2022-08-28T17:13:36.414Z,93571.09
2022-08-28T17:18:47.507Z,93563.19
2022-08-28T17:23:57.432Z,93561.63
2022-08-28T17:29:01.655Z,93570.19
2022-08-28T17:34:07.843Z,93568.16
2022-08-28T17:39:15.505Z,93587.06
2022-08-28T17:44:18.855Z,93589.53
2022-08-28T17:49:22.903Z,93578.41
2022-08-28T17:54:27.129Z,93587.22
2022-08-28T17:59:31.021Z,93575.75
2022-08-28T18:04:36.695Z,93587.66
2022-08-28T18:09:40.973Z,93582.00
2022-08-28T18:14:45.495Z,93596.97
2022-08-28T18:19:49.411Z,93610.53
2022-08-28T18:24:53.513Z,93615.22
2022-08-28T18:29:57.703Z,93630.06
2022-08-28T18:35:01.909Z,93640.50
2022-08-28T18:40:06.271Z,93645.78
2022-08-28T18:45:11.011Z,93649.66
2022-08-28T18:50:15.911Z,93672.31
2022-08-28T18:55:21.046Z,93676.19
2022-08-28T19:00:27.612Z,93687.31
2022-08-28T19:05:33.611Z,93700.09
2022-08-28T19:10:37.854Z,93709.13
2022-08-28T19:15:42.363Z,93695.34
2022-08-28T19:20:47.136Z,93696.88
2022-08-28T19:25:50.803Z,93699.13
2022-08-28T19:30:54.728Z,93695.69
2022-08-28T19:35:58.345Z,93711.91
2022-08-28T19:41:05.754Z,93716.25
2022-08-28T19:46:18.423Z,93698.22
2022-08-28T19:51:24.662Z,93695.09
2022-08-28T19:56:29.451Z,93680.09
2022-08-28T20:01:40.036Z,93671.31
2022-08-28T20:06:43.728Z,93673.22
2022-08-28T20:11:47.641Z,93663.00
2022-08-28T20:16:52.869Z,93635.66
2022-08-28T20:21:56.818Z,93639.78
2022-08-28T20:27:03.544Z,93650.47
2022-08-28T20:32:07.746Z,93659.56
2022-08-28T20:37:11.596Z,93661.09
2022-08-28T20:42:15.699Z,93650.28
2022-08-28T20:47:19.086Z,93657.16
2022-08-28T20:52:23.550Z,93665.00
2022-08-28T20:57:27.507Z,93664.25
2022-08-28T21:02:31.480Z,93674.81
2022-08-28T21:07:35.610Z,93678.31
2022-08-28T21:12:39.673Z,93672.34
2022-08-28T21:17:43.549Z,93687.88
2022-08-28T21:22:46.842Z,93686.44
2022-08-28T21:27:49.946Z,93707.22
2022-08-28T21:32:52.973Z,93708.78
2022-08-28T21:37:56.612Z,93715.91
2022-08-28T21:43:00.548Z,93726.31
2022-08-28T21:48:04.673Z,93728.75
2022-08-28T21:53:07.668Z,93715.75
2022-08-28T21:58:11.683Z,93721.00
2022-08-28T22:03:15.851Z,93714.41
2022-08-28T22:08:20.911Z,93723.63
2022-08-28T22:13:24.458Z,93729.16
2022-08-28T22:18:31.980Z,93712.59
2022-08-28T22:23:37.902Z,93720.16
2022-08-28T22:28:41.384Z,93720.69
2022-08-28T22:33:45.698Z,93716.50
2022-08-28T22:38:53.225Z,93697.97
2022-08-28T22:43:56.617Z,93684.06
2022-08-28T22:48:59.723Z,93688.81
2022-08-28T22:54:03.293Z,93685.38
2022-08-28T22:59:06.691Z,93650.34
2022-08-28T23:04:10.960Z,93679.47
2022-08-28T23:09:14.005Z,93681.50
2022-08-28T23:14:18.676Z,93672.03
2022-08-28T23:19:22.746Z,93677.78
2022-08-28T23:24:26.792Z,93675.22
2022-08-28T23:29:31.080Z,93658.94
2022-08-28T23:34:35.198Z,93668.47
2022-08-28T23:39:41.391Z,93676.59
2022-08-28T23:44:45.687Z,93680.94
2022-08-28T23:49:49.457Z,93663.81
2022-08-28T23:54:54.451Z,93670.81
2022-08-28T23:59:58.061Z,93668.13
